sensor_id;sensor_type;location;lat;lon;timestamp;P1;durP1;ratioP1;P2;durP2;ratioP2
57025;SDS011;43961;52.940;6.834;2024-03-29T00:01:14;10.27;;;4.40;;
57025;SDS011;43961;52.940;6.834;2024-03-29T00:03:39;24.08;;;4.60;;
57025;SDS011;43961;52.940;6.834;2024-03-29T00:06:08;20.25;;;5.95;;
57025;SDS011;43961;52.940;6.834;2024-03-29T00:08:34;8.70;;;3.97;;
57025;SDS011;43961;52.940;6.834;2024-03-29T00:11:01;8.80;;;3.78;;
57025;SDS011;43961;52.940;6.834;2024-03-29T00:13:27;9.57;;;3.90;;
57025;SDS011;43961;52.940;6.834;2024-03-29T00:15:53;9.73;;;4.03;;
57025;SDS011;43961;52.940;6.834;2024-03-29T00:18:19;15.90;;;4.30;;
57025;SDS011;43961;52.940;6.834;2024-03-29T00:20:44;12.50;;;4.50;;
57025;SDS011;43961;52.940;6.834;2024-03-29T00:23:10;16.05;;;4.43;;
57025;SDS011;43961;52.940;6.834;2024-03-29T00:25:35;17.80;;;4.28;;
57025;SDS011;43961;52.940;6.834;2024-03-29T00:28:01;15.77;;;5.40;;
57025;SDS011;43961;52.940;6.834;2024-03-29T00:30:28;20.25;;;5.28;;
57025;SDS011;43961;52.940;6.834;2024-03-29T00:32:54;11.98;;;4.15;;
57025;SDS011;43961;52.940;6.834;2024-03-29T00:35:19;14.68;;;4.90;;
57025;SDS011;43961;52.940;6.834;2024-03-29T00:37:47;16.00;;;5.03;;
57025;SDS011;43961;52.940;6.834;2024-03-29T00:40:13;13.48;;;4.72;;
57025;SDS011;43961;52.940;6.834;2024-03-29T00:42:39;12.32;;;4.47;;
57025;SDS011;43961;52.940;6.834;2024-03-29T00:45:04;16.83;;;4.28;;
57025;SDS011;43961;52.940;6.834;2024-03-29T00:47:30;13.68;;;4.20;;
57025;SDS011;43961;52.940;6.834;2024-03-29T00:49:56;12.88;;;4.30;;
57025;SDS011;43961;52.940;6.834;2024-03-29T00:52:22;13.88;;;4.93;;
57025;SDS011;43961;52.940;6.834;2024-03-29T00:54:47;20.92;;;5.13;;
57025;SDS011;43961;52.940;6.834;2024-03-29T00:57:13;20.48;;;5.80;;
57025;SDS011;43961;52.940;6.834;2024-03-29T00:59:40;13.80;;;4.00;;
57025;SDS011;43961;52.940;6.834;2024-03-29T01:02:08;9.70;;;4.50;;
57025;SDS011;43961;52.940;6.834;2024-03-29T01:04:34;19.10;;;4.82;;
57025;SDS011;43961;52.940;6.834;2024-03-29T01:07:00;19.52;;;4.72;;
57025;SDS011;43961;52.940;6.834;2024-03-29T01:09:26;15.13;;;4.30;;
57025;SDS011;43961;52.940;6.834;2024-03-29T01:11:51;23.17;;;5.28;;
57025;SDS011;43961;52.940;6.834;2024-03-29T01:14:17;14.00;;;4.88;;
57025;SDS011;43961;52.940;6.834;2024-03-29T01:16:42;13.88;;;4.60;;
57025;SDS011;43961;52.940;6.834;2024-03-29T01:19:08;9.98;;;4.68;;
57025;SDS011;43961;52.940;6.834;2024-03-29T01:21:36;10.75;;;3.97;;
57025;SDS011;43961;52.940;6.834;2024-03-29T01:24:02;9.95;;;4.20;;
57025;SDS011;43961;52.940;6.834;2024-03-29T01:26:28;28.20;;;5.60;;
57025;SDS011;43961;52.940;6.834;2024-03-29T01:28:54;9.40;;;4.47;;
57025;SDS011;43961;52.940;6.834;2024-03-29T01:31:19;12.45;;;4.93;;
57025;SDS011;43961;52.940;6.834;2024-03-29T01:33:45;11.77;;;4.32;;
57025;SDS011;43961;52.940;6.834;2024-03-29T01:36:11;12.98;;;4.82;;
57025;SDS011;43961;52.940;6.834;2024-03-29T01:38:36;20.05;;;4.63;;
57025;SDS011;43961;52.940;6.834;2024-03-29T01:41:02;13.18;;;4.85;;
57025;SDS011;43961;52.940;6.834;2024-03-29T01:43:28;15.45;;;4.30;;
57025;SDS011;43961;52.940;6.834;2024-03-29T01:45:54;12.82;;;4.57;;
57025;SDS011;43961;52.940;6.834;2024-03-29T01:48:21;17.90;;;4.13;;
57025;SDS011;43961;52.940;6.834;2024-03-29T01:50:48;38.67;;;5.90;;
57025;SDS011;43961;52.940;6.834;2024-03-29T01:53:16;12.95;;;4.30;;
57025;SDS011;43961;52.940;6.834;2024-03-29T01:55:44;10.85;;;4.00;;
57025;SDS011;43961;52.940;6.834;2024-03-29T01:58:10;12.30;;;4.25;;
57025;SDS011;43961;52.940;6.834;2024-03-29T02:00:41;16.48;;;4.50;;
57025;SDS011;43961;52.940;6.834;2024-03-29T02:03:23;25.30;;;4.93;;
57025;SDS011;43961;52.940;6.834;2024-03-29T02:05:49;16.48;;;4.85;;
57025;SDS011;43961;52.940;6.834;2024-03-29T02:08:15;16.85;;;4.95;;
57025;SDS011;43961;52.940;6.834;2024-03-29T02:10:42;15.05;;;4.13;;
57025;SDS011;43961;52.940;6.834;2024-03-29T02:13:08;15.10;;;4.40;;
57025;SDS011;43961;52.940;6.834;2024-03-29T02:15:34;13.13;;;4.28;;
57025;SDS011;43961;52.940;6.834;2024-03-29T02:18:00;14.98;;;4.65;;
57025;SDS011;43961;52.940;6.834;2024-03-29T02:20:25;19.42;;;4.05;;
57025;SDS011;43961;52.940;6.834;2024-03-29T02:22:55;20.13;;;5.53;;
57025;SDS011;43961;52.940;6.834;2024-03-29T02:25:25;11.70;;;4.30;;
57025;SDS011;43961;52.940;6.834;2024-03-29T02:27:51;14.02;;;3.83;;
57025;SDS011;43961;52.940;6.834;2024-03-29T02:30:17;7.75;;;3.90;;
57025;SDS011;43961;52.940;6.834;2024-03-29T02:32:43;23.77;;;4.93;;
57025;SDS011;43961;52.940;6.834;2024-03-29T02:35:09;18.33;;;4.78;;
57025;SDS011;43961;52.940;6.834;2024-03-29T02:37:35;14.75;;;4.70;;
57025;SDS011;43961;52.940;6.834;2024-03-29T02:40:01;18.00;;;4.63;;
57025;SDS011;43961;52.940;6.834;2024-03-29T02:42:31;13.32;;;3.83;;
57025;SDS011;43961;52.940;6.834;2024-03-29T02:44:57;14.70;;;3.97;;
57025;SDS011;43961;52.940;6.834;2024-03-29T02:47:23;16.15;;;4.55;;
57025;SDS011;43961;52.940;6.834;2024-03-29T02:49:49;15.38;;;4.90;;
57025;SDS011;43961;52.940;6.834;2024-03-29T02:52:14;21.60;;;5.15;;
57025;SDS011;43961;52.940;6.834;2024-03-29T02:54:43;16.75;;;4.55;;
57025;SDS011;43961;52.940;6.834;2024-03-29T02:57:09;12.70;;;4.40;;
57025;SDS011;43961;52.940;6.834;2024-03-29T02:59:34;9.00;;;3.38;;
57025;SDS011;43961;52.940;6.834;2024-03-29T03:02:00;21.02;;;5.40;;
57025;SDS011;43961;52.940;6.834;2024-03-29T03:04:25;9.13;;;3.92;;
57025;SDS011;43961;52.940;6.834;2024-03-29T03:06:51;14.65;;;3.83;;
57025;SDS011;43961;52.940;6.834;2024-03-29T03:09:17;21.23;;;4.20;;
57025;SDS011;43961;52.940;6.834;2024-03-29T03:12:01;9.38;;;3.92;;
57025;SDS011;43961;52.940;6.834;2024-03-29T03:14:26;17.58;;;3.88;;
57025;SDS011;43961;52.940;6.834;2024-03-29T03:16:52;16.35;;;4.85;;
57025;SDS011;43961;52.940;6.834;2024-03-29T03:19:18;9.02;;;3.75;;
57025;SDS011;43961;52.940;6.834;2024-03-29T03:21:44;14.18;;;3.78;;
57025;SDS011;43961;52.940;6.834;2024-03-29T03:24:09;19.77;;;4.70;;
57025;SDS011;43961;52.940;6.834;2024-03-29T03:26:37;14.07;;;4.75;;
57025;SDS011;43961;52.940;6.834;2024-03-29T03:29:02;18.13;;;3.80;;
57025;SDS011;43961;52.940;6.834;2024-03-29T03:31:28;19.75;;;4.50;;
57025;SDS011;43961;52.940;6.834;2024-03-29T03:33:53;15.48;;;4.07;;
57025;SDS011;43961;52.940;6.834;2024-03-29T03:36:19;16.55;;;3.75;;
57025;SDS011;43961;52.940;6.834;2024-03-29T03:38:45;13.48;;;3.95;;
57025;SDS011;43961;52.940;6.834;2024-03-29T03:41:10;13.13;;;4.28;;
57025;SDS011;43961;52.940;6.834;2024-03-29T03:43:36;18.60;;;4.57;;
57025;SDS011;43961;52.940;6.834;2024-03-29T03:46:02;17.02;;;4.03;;
57025;SDS011;43961;52.940;6.834;2024-03-29T03:48:27;17.55;;;4.45;;
57025;SDS011;43961;52.940;6.834;2024-03-29T03:50:56;19.92;;;4.35;;
57025;SDS011;43961;52.940;6.834;2024-03-29T03:53:22;14.18;;;4.15;;
57025;SDS011;43961;52.940;6.834;2024-03-29T03:55:48;14.70;;;4.10;;
57025;SDS011;43961;52.940;6.834;2024-03-29T03:58:14;10.70;;;3.78;;
57025;SDS011;43961;52.940;6.834;2024-03-29T04:00:39;18.83;;;4.50;;
57025;SDS011;43961;52.940;6.834;2024-03-29T04:03:05;16.45;;;4.57;;
57025;SDS011;43961;52.940;6.834;2024-03-29T04:05:31;14.52;;;4.25;;
57025;SDS011;43961;52.940;6.834;2024-03-29T04:07:57;11.38;;;4.07;;
57025;SDS011;43961;52.940;6.834;2024-03-29T04:10:23;13.70;;;4.05;;
57025;SDS011;43961;52.940;6.834;2024-03-29T04:12:52;13.15;;;3.88;;
57025;SDS011;43961;52.940;6.834;2024-03-29T04:17:43;14.70;;;4.15;;
57025;SDS011;43961;52.940;6.834;2024-03-29T04:20:09;13.75;;;3.97;;
57025;SDS011;43961;52.940;6.834;2024-03-29T04:22:34;14.88;;;4.60;;
57025;SDS011;43961;52.940;6.834;2024-03-29T04:25:00;18.15;;;4.70;;
57025;SDS011;43961;52.940;6.834;2024-03-29T04:27:26;19.00;;;4.85;;
57025;SDS011;43961;52.940;6.834;2024-03-29T04:29:52;20.73;;;4.38;;
57025;SDS011;43961;52.940;6.834;2024-03-29T04:32:18;14.90;;;5.25;;
57025;SDS011;43961;52.940;6.834;2024-03-29T04:34:48;19.55;;;4.28;;
57025;SDS011;43961;52.940;6.834;2024-03-29T04:37:14;15.73;;;4.20;;
57025;SDS011;43961;52.940;6.834;2024-03-29T04:39:42;20.55;;;4.10;;
57025;SDS011;43961;52.940;6.834;2024-03-29T04:42:08;18.77;;;4.05;;
57025;SDS011;43961;52.940;6.834;2024-03-29T04:44:35;16.83;;;4.40;;
57025;SDS011;43961;52.940;6.834;2024-03-29T04:47:01;13.20;;;4.50;;
57025;SDS011;43961;52.940;6.834;2024-03-29T04:49:27;14.25;;;3.80;;
57025;SDS011;43961;52.940;6.834;2024-03-29T04:51:58;14.45;;;3.80;;
57025;SDS011;43961;52.940;6.834;2024-03-29T04:54:25;18.30;;;4.72;;
57025;SDS011;43961;52.940;6.834;2024-03-29T04:56:51;17.23;;;4.40;;
57025;SDS011;43961;52.940;6.834;2024-03-29T04:59:17;14.00;;;4.28;;
57025;SDS011;43961;52.940;6.834;2024-03-29T05:01:43;13.77;;;5.03;;
57025;SDS011;43961;52.940;6.834;2024-03-29T05:04:09;17.17;;;4.50;;
57025;SDS011;43961;52.940;6.834;2024-03-29T05:06:36;18.75;;;5.65;;
57025;SDS011;43961;52.940;6.834;2024-03-29T05:09:02;18.58;;;4.90;;
57025;SDS011;43961;52.940;6.834;2024-03-29T05:11:28;24.15;;;5.40;;
57025;SDS011;43961;52.940;6.834;2024-03-29T05:13:53;16.88;;;5.32;;
57025;SDS011;43961;52.940;6.834;2024-03-29T05:16:19;26.38;;;5.68;;
57025;SDS011;43961;52.940;6.834;2024-03-29T05:18:47;18.95;;;5.20;;
57025;SDS011;43961;52.940;6.834;2024-03-29T05:21:13;20.33;;;6.45;;
57025;SDS011;43961;52.940;6.834;2024-03-29T05:23:39;19.33;;;5.78;;
57025;SDS011;43961;52.940;6.834;2024-03-29T05:26:04;14.52;;;5.75;;
57025;SDS011;43961;52.940;6.834;2024-03-29T05:28:30;20.15;;;6.18;;
57025;SDS011;43961;52.940;6.834;2024-03-29T05:30:55;21.55;;;5.75;;
57025;SDS011;43961;52.940;6.834;2024-03-29T05:33:23;18.90;;;6.25;;
57025;SDS011;43961;52.940;6.834;2024-03-29T05:35:49;17.33;;;5.32;;
57025;SDS011;43961;52.940;6.834;2024-03-29T05:38:14;16.55;;;5.75;;
57025;SDS011;43961;52.940;6.834;2024-03-29T05:40:40;14.90;;;5.55;;
57025;SDS011;43961;52.940;6.834;2024-03-29T05:43:05;18.00;;;5.78;;
57025;SDS011;43961;52.940;6.834;2024-03-29T05:45:31;20.25;;;5.45;;
57025;SDS011;43961;52.940;6.834;2024-03-29T05:47:57;17.33;;;5.57;;
57025;SDS011;43961;52.940;6.834;2024-03-29T05:50:24;14.10;;;4.85;;
57025;SDS011;43961;52.940;6.834;2024-03-29T05:52:50;22.80;;;6.50;;
57025;SDS011;43961;52.940;6.834;2024-03-29T05:55:17;16.50;;;4.97;;
57025;SDS011;43961;52.940;6.834;2024-03-29T05:57:43;26.00;;;6.53;;
57025;SDS011;43961;52.940;6.834;2024-03-29T06:00:10;9.88;;;4.57;;
57025;SDS011;43961;52.940;6.834;2024-03-29T06:02:37;14.60;;;5.57;;
57025;SDS011;43961;52.940;6.834;2024-03-29T06:05:03;12.75;;;4.18;;
57025;SDS011;43961;52.940;6.834;2024-03-29T06:07:30;11.68;;;4.10;;
57025;SDS011;43961;52.940;6.834;2024-03-29T06:09:58;11.45;;;5.43;;
57025;SDS011;43961;52.940;6.834;2024-03-29T06:12:25;15.23;;;4.75;;
57025;SDS011;43961;52.940;6.834;2024-03-29T06:14:51;10.95;;;3.92;;
57025;SDS011;43961;52.940;6.834;2024-03-29T06:17:35;12.55;;;4.00;;
57025;SDS011;43961;52.940;6.834;2024-03-29T06:20:04;19.08;;;4.10;;
57025;SDS011;43961;52.940;6.834;2024-03-29T06:22:30;16.67;;;3.70;;
57025;SDS011;43961;52.940;6.834;2024-03-29T06:24:56;12.85;;;4.50;;
57025;SDS011;43961;52.940;6.834;2024-03-29T06:27:29;19.45;;;4.47;;
57025;SDS011;43961;52.940;6.834;2024-03-29T06:29:59;20.40;;;4.88;;
57025;SDS011;43961;52.940;6.834;2024-03-29T06:32:25;18.40;;;5.90;;
57025;SDS011;43961;52.940;6.834;2024-03-29T06:34:50;13.98;;;5.93;;
57025;SDS011;43961;52.940;6.834;2024-03-29T06:37:16;17.77;;;3.72;;
57025;SDS011;43961;52.940;6.834;2024-03-29T06:39:42;10.45;;;4.25;;
57025;SDS011;43961;52.940;6.834;2024-03-29T06:42:08;8.48;;;4.32;;
57025;SDS011;43961;52.940;6.834;2024-03-29T06:44:35;21.70;;;6.72;;
57025;SDS011;43961;52.940;6.834;2024-03-29T06:47:02;19.42;;;4.90;;
57025;SDS011;43961;52.940;6.834;2024-03-29T06:49:28;12.65;;;4.22;;
57025;SDS011;43961;52.940;6.834;2024-03-29T06:51:53;11.18;;;5.40;;
57025;SDS011;43961;52.940;6.834;2024-03-29T06:54:21;12.52;;;5.07;;
57025;SDS011;43961;52.940;6.834;2024-03-29T06:56:51;14.43;;;5.47;;
57025;SDS011;43961;52.940;6.834;2024-03-29T06:59:19;14.77;;;4.88;;
57025;SDS011;43961;52.940;6.834;2024-03-29T07:01:44;14.07;;;5.10;;
57025;SDS011;43961;52.940;6.834;2024-03-29T07:04:12;11.15;;;4.20;;
57025;SDS011;43961;52.940;6.834;2024-03-29T07:06:38;15.70;;;3.78;;
57025;SDS011;43961;52.940;6.834;2024-03-29T07:09:04;16.92;;;4.47;;
57025;SDS011;43961;52.940;6.834;2024-03-29T07:11:31;16.30;;;4.40;;
57025;SDS011;43961;52.940;6.834;2024-03-29T07:13:56;8.57;;;3.67;;
57025;SDS011;43961;52.940;6.834;2024-03-29T07:16:22;10.70;;;4.18;;
57025;SDS011;43961;52.940;6.834;2024-03-29T07:18:48;17.00;;;4.32;;
57025;SDS011;43961;52.940;6.834;2024-03-29T07:21:13;17.05;;;4.07;;
57025;SDS011;43961;52.940;6.834;2024-03-29T07:23:39;12.00;;;3.20;;
57025;SDS011;43961;52.940;6.834;2024-03-29T07:26:05;7.30;;;3.05;;
57025;SDS011;43961;52.940;6.834;2024-03-29T07:28:30;5.25;;;3.50;;
57025;SDS011;43961;52.940;6.834;2024-03-29T07:30:56;8.73;;;3.63;;
57025;SDS011;43961;52.940;6.834;2024-03-29T07:33:23;8.73;;;2.78;;
57025;SDS011;43961;52.940;6.834;2024-03-29T07:35:53;17.73;;;5.18;;
57025;SDS011;43961;52.940;6.834;2024-03-29T07:38:19;7.15;;;4.10;;
57025;SDS011;43961;52.940;6.834;2024-03-29T07:40:46;12.80;;;3.70;;
57025;SDS011;43961;52.940;6.834;2024-03-29T07:43:12;8.40;;;3.97;;
57025;SDS011;43961;52.940;6.834;2024-03-29T07:45:42;15.13;;;4.22;;
57025;SDS011;43961;52.940;6.834;2024-03-29T07:48:11;9.13;;;4.35;;
57025;SDS011;43961;52.940;6.834;2024-03-29T07:50:46;12.10;;;4.95;;
57025;SDS011;43961;52.940;6.834;2024-03-29T07:53:12;11.75;;;4.47;;
57025;SDS011;43961;52.940;6.834;2024-03-29T07:55:38;17.85;;;5.43;;
57025;SDS011;43961;52.940;6.834;2024-03-29T07:58:08;15.75;;;4.93;;
57025;SDS011;43961;52.940;6.834;2024-03-29T08:00:38;7.90;;;3.85;;
57025;SDS011;43961;52.940;6.834;2024-03-29T08:03:07;11.75;;;4.57;;
57025;SDS011;43961;52.940;6.834;2024-03-29T08:05:34;11.82;;;4.53;;
57025;SDS011;43961;52.940;6.834;2024-03-29T08:08:01;12.68;;;4.93;;
57025;SDS011;43961;52.940;6.834;2024-03-29T08:10:28;7.05;;;3.78;;
57025;SDS011;43961;52.940;6.834;2024-03-29T08:12:54;12.40;;;5.10;;
57025;SDS011;43961;52.940;6.834;2024-03-29T08:15:20;11.25;;;5.05;;
57025;SDS011;43961;52.940;6.834;2024-03-29T08:17:46;12.15;;;4.88;;
57025;SDS011;43961;52.940;6.834;2024-03-29T08:20:11;13.65;;;5.18;;
57025;SDS011;43961;52.940;6.834;2024-03-29T08:22:37;18.83;;;5.53;;
57025;SDS011;43961;52.940;6.834;2024-03-29T08:25:02;13.10;;;6.18;;
57025;SDS011;43961;52.940;6.834;2024-03-29T08:27:28;14.32;;;5.32;;
57025;SDS011;43961;52.940;6.834;2024-03-29T08:29:54;11.50;;;5.55;;
57025;SDS011;43961;52.940;6.834;2024-03-29T08:32:20;15.65;;;6.20;;
57025;SDS011;43961;52.940;6.834;2024-03-29T08:34:46;16.20;;;8.40;;
57025;SDS011;43961;52.940;6.834;2024-03-29T08:37:12;20.33;;;8.35;;
57025;SDS011;43961;52.940;6.834;2024-03-29T08:39:38;15.52;;;7.93;;
57025;SDS011;43961;52.940;6.834;2024-03-29T08:42:04;15.07;;;10.15;;
57025;SDS011;43961;52.940;6.834;2024-03-29T08:44:31;17.75;;;9.35;;
57025;SDS011;43961;52.940;6.834;2024-03-29T08:46:57;17.55;;;9.27;;
57025;SDS011;43961;52.940;6.834;2024-03-29T08:49:26;12.43;;;8.90;;
57025;SDS011;43961;52.940;6.834;2024-03-29T08:51:58;16.67;;;9.32;;
57025;SDS011;43961;52.940;6.834;2024-03-29T08:54:25;10.27;;;8.07;;
57025;SDS011;43961;52.940;6.834;2024-03-29T08:56:53;20.40;;;10.75;;
57025;SDS011;43961;52.940;6.834;2024-03-29T08:59:18;21.13;;;9.50;;
57025;SDS011;43961;52.940;6.834;2024-03-29T09:01:44;13.20;;;9.20;;
57025;SDS011;43961;52.940;6.834;2024-03-29T09:04:11;12.68;;;8.43;;
57025;SDS011;43961;52.940;6.834;2024-03-29T09:06:37;15.00;;;8.93;;
57025;SDS011;43961;52.940;6.834;2024-03-29T09:09:06;17.13;;;8.93;;
57025;SDS011;43961;52.940;6.834;2024-03-29T09:11:32;16.30;;;9.27;;
57025;SDS011;43961;52.940;6.834;2024-03-29T09:13:58;18.15;;;13.98;;
57025;SDS011;43961;52.940;6.834;2024-03-29T09:16:24;27.77;;;15.55;;
57025;SDS011;43961;52.940;6.834;2024-03-29T09:18:50;19.00;;;11.65;;
57025;SDS011;43961;52.940;6.834;2024-03-29T09:21:17;15.50;;;10.50;;
57025;SDS011;43961;52.940;6.834;2024-03-29T09:23:45;17.15;;;8.90;;
57025;SDS011;43961;52.940;6.834;2024-03-29T09:26:11;11.80;;;6.88;;
57025;SDS011;43961;52.940;6.834;2024-03-29T09:28:37;16.15;;;7.57;;
57025;SDS011;43961;52.940;6.834;2024-03-29T09:31:03;9.45;;;6.45;;
57025;SDS011;43961;52.940;6.834;2024-03-29T09:33:28;13.75;;;7.00;;
57025;SDS011;43961;52.940;6.834;2024-03-29T09:35:54;12.95;;;8.68;;
57025;SDS011;43961;52.940;6.834;2024-03-29T09:38:20;15.75;;;7.13;;
57025;SDS011;43961;52.940;6.834;2024-03-29T09:40:46;10.68;;;7.55;;
57025;SDS011;43961;52.940;6.834;2024-03-29T09:43:18;24.45;;;13.82;;
57025;SDS011;43961;52.940;6.834;2024-03-29T09:45:44;13.57;;;8.27;;
57025;SDS011;43961;52.940;6.834;2024-03-29T09:48:10;14.65;;;8.82;;
57025;SDS011;43961;52.940;6.834;2024-03-29T09:50:37;12.43;;;7.40;;
57025;SDS011;43961;52.940;6.834;2024-03-29T09:53:05;15.35;;;7.93;;
57025;SDS011;43961;52.940;6.834;2024-03-29T09:55:33;8.52;;;6.65;;
57025;SDS011;43961;52.940;6.834;2024-03-29T09:58:00;10.38;;;7.57;;
57025;SDS011;43961;52.940;6.834;2024-03-29T10:00:28;10.15;;;7.95;;
57025;SDS011;43961;52.940;6.834;2024-03-29T10:02:55;9.02;;;6.30;;
57025;SDS011;43961;52.940;6.834;2024-03-29T10:05:24;14.10;;;6.57;;
57025;SDS011;43961;52.940;6.834;2024-03-29T10:07:52;7.63;;;5.75;;
57025;SDS011;43961;52.940;6.834;2024-03-29T10:10:18;11.82;;;5.90;;
57025;SDS011;43961;52.940;6.834;2024-03-29T10:12:44;7.57;;;5.38;;
57025;SDS011;43961;52.940;6.834;2024-03-29T10:15:10;8.05;;;5.40;;
57025;SDS011;43961;52.940;6.834;2024-03-29T10:17:48;7.80;;;5.60;;
57025;SDS011;43961;52.940;6.834;2024-03-29T10:20:18;9.63;;;4.90;;
57025;SDS011;43961;52.940;6.834;2024-03-29T10:22:44;9.90;;;6.10;;
57025;SDS011;43961;52.940;6.834;2024-03-29T10:25:12;9.60;;;5.35;;
57025;SDS011;43961;52.940;6.834;2024-03-29T10:27:39;8.88;;;6.10;;
57025;SDS011;43961;52.940;6.834;2024-03-29T10:30:06;16.90;;;6.35;;
57025;SDS011;43961;52.940;6.834;2024-03-29T10:32:34;9.45;;;5.70;;
57025;SDS011;43961;52.940;6.834;2024-03-29T10:35:01;11.10;;;6.13;;
57025;SDS011;43961;52.940;6.834;2024-03-29T10:37:29;11.77;;;6.15;;
57025;SDS011;43961;52.940;6.834;2024-03-29T10:39:57;9.75;;;5.97;;
57025;SDS011;43961;52.940;6.834;2024-03-29T10:42:23;11.02;;;5.95;;
57025;SDS011;43961;52.940;6.834;2024-03-29T10:44:52;9.32;;;6.13;;
57025;SDS011;43961;52.940;6.834;2024-03-29T10:47:20;8.70;;;5.30;;
57025;SDS011;43961;52.940;6.834;2024-03-29T10:49:49;12.30;;;6.03;;
57025;SDS011;43961;52.940;6.834;2024-03-29T10:52:22;10.45;;;5.93;;
57025;SDS011;43961;52.940;6.834;2024-03-29T10:54:51;6.00;;;4.93;;
57025;SDS011;43961;52.940;6.834;2024-03-29T10:57:22;6.75;;;4.47;;
57025;SDS011;43961;52.940;6.834;2024-03-29T11:00:03;7.70;;;5.07;;
57025;SDS011;43961;52.940;6.834;2024-03-29T11:05:34;9.48;;;5.53;;
57025;SDS011;43961;52.940;6.834;2024-03-29T11:08:01;13.55;;;8.13;;
57025;SDS011;43961;52.940;6.834;2024-03-29T11:15:51;12.93;;;5.85;;
57025;SDS011;43961;52.940;6.834;2024-03-29T11:18:18;13.95;;;7.22;;
57025;SDS011;43961;52.940;6.834;2024-03-29T11:20:45;12.18;;;8.07;;
57025;SDS011;43961;52.940;6.834;2024-03-29T11:23:16;13.50;;;7.93;;
57025;SDS011;43961;52.940;6.834;2024-03-29T11:25:43;12.68;;;10.27;;
57025;SDS011;43961;52.940;6.834;2024-03-29T11:28:13;16.98;;;14.85;;
57025;SDS011;43961;52.940;6.834;2024-03-29T11:30:43;19.17;;;16.02;;
57025;SDS011;43961;52.940;6.834;2024-03-29T11:35:57;19.73;;;16.45;;
57025;SDS011;43961;52.940;6.834;2024-03-29T11:38:30;16.42;;;14.73;;
57025;SDS011;43961;52.940;6.834;2024-03-29T11:41:03;17.30;;;13.85;;
57025;SDS011;43961;52.940;6.834;2024-03-29T11:43:33;14.98;;;13.45;;
57025;SDS011;43961;52.940;6.834;2024-03-29T11:46:00;19.25;;;13.70;;
57025;SDS011;43961;52.940;6.834;2024-03-29T11:48:27;17.02;;;14.05;;
57025;SDS011;43961;52.940;6.834;2024-03-29T11:50:53;15.75;;;14.13;;
57025;SDS011;43961;52.940;6.834;2024-03-29T11:53:19;13.75;;;12.40;;
57025;SDS011;43961;52.940;6.834;2024-03-29T11:55:46;13.57;;;12.18;;
57025;SDS011;43961;52.940;6.834;2024-03-29T11:58:12;15.55;;;13.73;;
57025;SDS011;43961;52.940;6.834;2024-03-29T12:00:38;23.13;;;15.90;;
57025;SDS011;43961;52.940;6.834;2024-03-29T12:03:05;16.17;;;13.27;;
57025;SDS011;43961;52.940;6.834;2024-03-29T12:05:32;16.70;;;14.45;;
57025;SDS011;43961;52.940;6.834;2024-03-29T12:07:58;18.55;;;14.80;;
57025;SDS011;43961;52.940;6.834;2024-03-29T12:10:27;14.95;;;12.93;;
57025;SDS011;43961;52.940;6.834;2024-03-29T12:12:57;15.68;;;13.18;;
57025;SDS011;43961;52.940;6.834;2024-03-29T12:15:28;16.33;;;13.13;;
57025;SDS011;43961;52.940;6.834;2024-03-29T12:17:57;16.65;;;13.90;;
57025;SDS011;43961;52.940;6.834;2024-03-29T12:20:24;16.48;;;14.43;;
57025;SDS011;43961;52.940;6.834;2024-03-29T12:22:51;19.73;;;15.27;;
57025;SDS011;43961;52.940;6.834;2024-03-29T12:25:17;17.48;;;14.45;;
57025;SDS011;43961;52.940;6.834;2024-03-29T12:27:45;16.17;;;14.48;;
57025;SDS011;43961;52.940;6.834;2024-03-29T12:30:11;17.08;;;15.32;;
57025;SDS011;43961;52.940;6.834;2024-03-29T12:32:38;17.27;;;15.57;;
57025;SDS011;43961;52.940;6.834;2024-03-29T12:35:08;16.02;;;14.52;;
57025;SDS011;43961;52.940;6.834;2024-03-29T12:37:38;22.60;;;15.18;;
57025;SDS011;43961;52.940;6.834;2024-03-29T12:40:15;18.90;;;15.18;;
57025;SDS011;43961;52.940;6.834;2024-03-29T12:42:47;14.73;;;13.00;;
57025;SDS011;43961;52.940;6.834;2024-03-29T12:45:17;14.77;;;13.48;;
57025;SDS011;43961;52.940;6.834;2024-03-29T12:47:44;14.63;;;13.07;;
57025;SDS011;43961;52.940;6.834;2024-03-29T12:50:27;15.45;;;13.50;;
57025;SDS011;43961;52.940;6.834;2024-03-29T12:52:54;15.13;;;13.52;;
57025;SDS011;43961;52.940;6.834;2024-03-29T12:55:24;15.02;;;13.35;;
57025;SDS011;43961;52.940;6.834;2024-03-29T12:57:53;13.75;;;12.55;;
57025;SDS011;43961;52.940;6.834;2024-03-29T13:00:22;14.25;;;12.70;;
57025;SDS011;43961;52.940;6.834;2024-03-29T13:02:48;17.10;;;12.90;;
57025;SDS011;43961;52.940;6.834;2024-03-29T13:05:15;13.05;;;11.95;;
57025;SDS011;43961;52.940;6.834;2024-03-29T13:07:40;13.30;;;12.05;;
57025;SDS011;43961;52.940;6.834;2024-03-29T13:10:07;16.35;;;12.85;;
57025;SDS011;43961;52.940;6.834;2024-03-29T13:12:39;14.57;;;12.93;;
57025;SDS011;43961;52.940;6.834;2024-03-29T13:15:14;19.98;;;13.45;;
57025;SDS011;43961;52.940;6.834;2024-03-29T13:17:41;15.45;;;14.10;;
57025;SDS011;43961;52.940;6.834;2024-03-29T13:20:07;14.43;;;13.02;;
57025;SDS011;43961;52.940;6.834;2024-03-29T13:22:35;12.73;;;11.48;;
57025;SDS011;43961;52.940;6.834;2024-03-29T13:25:01;13.68;;;12.52;;
57025;SDS011;43961;52.940;6.834;2024-03-29T13:27:27;12.15;;;11.10;;
57025;SDS011;43961;52.940;6.834;2024-03-29T13:29:52;10.88;;;9.77;;
57025;SDS011;43961;52.940;6.834;2024-03-29T13:32:18;10.35;;;9.45;;
57025;SDS011;43961;52.940;6.834;2024-03-29T13:34:43;9.38;;;8.38;;
57025;SDS011;43961;52.940;6.834;2024-03-29T13:37:09;10.57;;;8.57;;
57025;SDS011;43961;52.940;6.834;2024-03-29T13:39:34;9.88;;;8.32;;
57025;SDS011;43961;52.940;6.834;2024-03-29T13:42:00;15.25;;;8.43;;
57025;SDS011;43961;52.940;6.834;2024-03-29T13:44:26;9.68;;;8.25;;
57025;SDS011;43961;52.940;6.834;2024-03-29T13:46:51;9.90;;;8.38;;
57025;SDS011;43961;52.940;6.834;2024-03-29T13:49:19;9.98;;;7.68;;
57025;SDS011;43961;52.940;6.834;2024-03-29T13:51:47;8.02;;;6.32;;
57025;SDS011;43961;52.940;6.834;2024-03-29T13:54:14;7.55;;;5.72;;
57025;SDS011;43961;52.940;6.834;2024-03-29T13:56:40;5.60;;;5.10;;
57025;SDS011;43961;52.940;6.834;2024-03-29T13:59:05;7.10;;;4.68;;
57025;SDS011;43961;52.940;6.834;2024-03-29T14:01:31;5.45;;;4.88;;
57025;SDS011;43961;52.940;6.834;2024-03-29T14:03:56;6.95;;;4.68;;
57025;SDS011;43961;52.940;6.834;2024-03-29T14:06:22;4.80;;;4.32;;
57025;SDS011;43961;52.940;6.834;2024-03-29T14:08:48;5.30;;;4.68;;
57025;SDS011;43961;52.940;6.834;2024-03-29T14:11:13;5.55;;;4.28;;
57025;SDS011;43961;52.940;6.834;2024-03-29T14:13:39;8.55;;;4.38;;
57025;SDS011;43961;52.940;6.834;2024-03-29T14:16:06;7.55;;;3.72;;
57025;SDS011;43961;52.940;6.834;2024-03-29T14:18:31;3.92;;;3.63;;
57025;SDS011;43961;52.940;6.834;2024-03-29T14:20:57;5.13;;;4.43;;
57025;SDS011;43961;52.940;6.834;2024-03-29T14:23:23;5.35;;;3.33;;
57025;SDS011;43961;52.940;6.834;2024-03-29T14:25:50;7.18;;;4.78;;
57025;SDS011;43961;52.940;6.834;2024-03-29T14:28:16;4.75;;;4.35;;
57025;SDS011;43961;52.940;6.834;2024-03-29T14:30:42;4.75;;;4.32;;
57025;SDS011;43961;52.940;6.834;2024-03-29T14:33:08;5.18;;;4.22;;
57025;SDS011;43961;52.940;6.834;2024-03-29T14:35:36;5.78;;;4.15;;
57025;SDS011;43961;52.940;6.834;2024-03-29T14:38:02;4.78;;;3.75;;
57025;SDS011;43961;52.940;6.834;2024-03-29T14:40:28;7.68;;;4.80;;
57025;SDS011;43961;52.940;6.834;2024-03-29T14:42:54;5.53;;;4.20;;
57025;SDS011;43961;52.940;6.834;2024-03-29T14:45:19;9.27;;;4.35;;
57025;SDS011;43961;52.940;6.834;2024-03-29T14:47:45;3.72;;;3.38;;